createdAt,value
2019-06-07T00:01:21.758Z,78.79
2019-06-07T00:06:25.914Z,78.80
2019-06-07T00:11:29.194Z,79.46
2019-06-07T00:16:32.192Z,79.44
2019-06-07T00:22:13.553Z,81.21
2019-06-07T00:26:57.284Z,81.78
2019-06-07T00:31:45.329Z,83.75
2019-06-07T00:36:48.813Z,81.60
2019-06-07T00:41:52.072Z,83.67
2019-06-07T00:46:55.769Z,83.65
2019-06-07T00:51:58.906Z,82.92
2019-06-07T00:57:01.901Z,83.96
2019-06-07T01:02:05.553Z,82.99
2019-06-07T01:07:08.828Z,82.75
2019-06-07T01:12:14.115Z,82.12
2019-06-07T01:17:40.048Z,81.75
2019-06-07T01:22:30.479Z,81.48
2019-06-07T01:27:33.616Z,81.29
2019-06-07T01:32:36.727Z,81.97
2019-06-07T01:37:39.809Z,82.89
2019-06-07T01:42:42.858Z,83.21
2019-06-07T01:47:46.089Z,82.65
2019-06-07T01:52:49.279Z,81.95
2019-06-07T01:57:52.428Z,81.12
2019-06-07T02:02:55.606Z,82.54
2019-06-07T02:07:59.024Z,82.74
2019-06-07T02:13:02.032Z,81.47
2019-06-07T02:18:04.979Z,81.48
2019-06-07T02:23:08.230Z,81.75
2019-06-07T02:28:27.098Z,81.71
2019-06-07T02:33:16.079Z,81.53
2019-06-07T02:38:19.041Z,82.11
2019-06-07T02:43:22.191Z,80.86
2019-06-07T02:48:28.024Z,81.27
2019-06-07T02:53:33.678Z,81.95
2019-06-07T02:58:41.514Z,81.11
2019-06-07T03:03:40.766Z,80.64
2019-06-07T03:08:46.440Z,80.49
2019-06-07T03:13:50.361Z,79.31
2019-06-07T03:19:01.043Z,80.26
2019-06-07T03:24:04.452Z,81.57
2019-06-07T03:29:07.460Z,81.35
2019-06-07T03:34:10.436Z,80.77
2019-06-07T03:39:13.549Z,80.61
2019-06-07T03:44:16.540Z,79.63
2019-06-07T03:49:19.579Z,80.72
2019-06-07T03:54:22.675Z,78.97
2019-06-07T03:59:25.636Z,79.48
2019-06-07T04:04:29.782Z,79.75
2019-06-07T04:09:35.707Z,79.42
2019-06-07T04:15:10.156Z,78.19
2019-06-07T04:20:13.418Z,79.07
2019-06-07T04:25:16.495Z,79.81
2019-06-07T04:30:42.347Z,82.10
2019-06-07T04:35:45.489Z,79.93
2019-06-07T04:40:50.438Z,79.75
2019-06-07T04:45:55.746Z,79.23
2019-06-07T04:51:02.505Z,81.36
2019-06-07T04:56:05.586Z,79.24
2019-06-07T05:01:26.424Z,78.46
2019-06-07T05:06:15.458Z,78.92
2019-06-07T05:11:18.451Z,79.16
2019-06-07T05:16:21.409Z,78.18
2019-06-07T05:21:24.358Z,77.71
2019-06-07T05:26:27.732Z,80.33
2019-06-07T05:31:31.788Z,78.94
2019-06-07T05:36:37.581Z,76.83
2019-06-07T05:41:43.785Z,74.67
2019-06-07T05:46:47.187Z,73.08
2019-06-07T05:51:50.597Z,72.97
2019-06-07T05:56:53.566Z,71.04
2019-06-07T06:02:03.207Z,68.79
2019-06-07T06:07:01.620Z,67.68
2019-06-07T06:12:04.824Z,67.42
2019-06-07T06:17:07.985Z,68.37
2019-06-07T06:22:11.094Z,69.47
2019-06-07T06:27:55.169Z,68.68
2019-06-07T06:37:24.072Z,69.69
2019-06-07T06:42:27.321Z,68.17
2019-06-07T06:47:30.406Z,67.58
2019-06-07T06:52:33.662Z,66.26
2019-06-07T06:57:36.948Z,64.19
2019-06-07T07:03:30.192Z,64.48
2019-06-07T07:07:47.932Z,64.14
2019-06-07T07:12:52.494Z,63.70
2019-06-07T07:18:07.833Z,62.03
2019-06-07T07:23:01.200Z,62.17
2019-06-07T07:28:05.162Z,63.14
2019-06-07T07:33:08.239Z,61.50
2019-06-07T07:38:11.409Z,63.15
2019-06-07T07:43:16.087Z,64.25
2019-06-07T07:48:19.267Z,64.08
2019-06-07T07:53:22.419Z,64.71
2019-06-07T07:58:25.672Z,63.87
2019-06-07T08:03:28.880Z,62.72
2019-06-07T08:08:34.553Z,63.11
2019-06-07T08:13:38.995Z,63.44
2019-06-07T08:18:42.222Z,62.18
2019-06-07T08:23:47.404Z,62.09
2019-06-07T08:28:53.091Z,60.73
2019-06-07T08:33:57.049Z,59.75
2019-06-07T08:39:06.784Z,59.76
2019-06-07T08:44:22.724Z,60.38
2019-06-07T08:49:10.461Z,58.31
2019-06-07T08:54:22.170Z,59.56
2019-06-07T08:59:19.368Z,59.18
2019-06-07T09:04:22.391Z,57.00
2019-06-07T09:09:25.743Z,57.50
2019-06-07T09:14:28.709Z,57.09
2019-06-07T09:19:31.767Z,57.52
2019-06-07T09:24:34.852Z,57.02
2019-06-07T09:29:38.465Z,56.05
2019-06-07T09:34:41.575Z,56.36
2019-06-07T09:39:45.258Z,56.73
2019-06-07T09:44:48.352Z,57.90
2019-06-07T09:49:51.871Z,58.67
2019-06-07T09:55:09.229Z,59.54
2019-06-07T10:00:21.346Z,59.52
2019-06-07T10:05:12.173Z,57.11
2019-06-07T10:15:17.138Z,58.58
2019-06-07T10:20:20.586Z,58.58
2019-06-07T10:25:23.654Z,58.24
2019-06-07T10:30:26.762Z,56.78
2019-06-07T10:35:29.830Z,57.47
2019-06-07T10:40:32.804Z,56.50
2019-06-07T10:45:35.913Z,56.82
2019-06-07T10:50:39.151Z,59.28
2019-06-07T10:55:42.632Z,54.84
2019-06-07T11:00:45.747Z,55.42
2019-06-07T11:05:49.957Z,51.90
2019-06-07T11:10:53.179Z,52.52
2019-06-07T11:15:56.326Z,52.24
2019-06-07T11:20:59.440Z,54.88
2019-06-07T11:26:02.547Z,53.81
2019-06-07T11:31:06.322Z,54.38
2019-06-07T11:36:10.678Z,55.67
2019-06-07T11:41:13.854Z,53.92
2019-06-07T11:46:18.316Z,53.78
2019-06-07T11:51:21.548Z,56.10
2019-06-07T11:56:24.631Z,53.89
2019-06-07T12:01:28.060Z,52.86
2019-06-07T12:06:31.160Z,50.95
2019-06-07T12:11:34.201Z,48.02
2019-06-07T12:16:37.331Z,50.50
2019-06-07T12:21:42.147Z,51.66
2019-06-07T12:26:45.215Z,50.63
2019-06-07T12:31:48.304Z,50.91
2019-06-07T12:36:51.792Z,48.40
2019-06-07T12:41:55.017Z,50.72
2019-06-07T12:46:58.016Z,52.62
2019-06-07T12:52:01.200Z,46.97
2019-06-07T12:57:04.750Z,46.19
2019-06-07T13:02:08.196Z,47.69
2019-06-07T13:07:11.278Z,46.22
2019-06-07T13:12:15.455Z,45.77
2019-06-07T13:17:20.255Z,47.05
2019-06-07T13:22:24.390Z,45.72
2019-06-07T13:27:32.798Z,45.79
2019-06-07T13:32:32.750Z,45.52
2019-06-07T13:37:37.568Z,47.65
2019-06-07T13:42:40.764Z,45.49
2019-06-07T13:47:46.101Z,45.49
2019-06-07T13:52:48.584Z,48.06
2019-06-07T13:57:51.770Z,44.36
2019-06-07T14:02:55.055Z,42.93
2019-06-07T14:07:58.128Z,47.06
2019-06-07T14:13:01.250Z,43.63
2019-06-07T14:18:05.580Z,44.90
2019-06-07T14:23:08.801Z,45.06
2019-06-07T14:28:12.110Z,45.20
2019-06-07T14:33:15.220Z,46.36
2019-06-07T14:38:18.506Z,45.73
2019-06-07T14:43:23.142Z,47.09
2019-06-07T14:48:26.411Z,46.33
2019-06-07T14:53:30.890Z,44.64
2019-06-07T14:58:40.071Z,47.75
2019-06-07T15:03:39.313Z,44.58
2019-06-07T15:08:42.587Z,46.02
2019-06-07T15:13:45.677Z,44.51
2019-06-07T15:18:48.814Z,44.54
2019-06-07T15:23:51.834Z,45.56
2019-06-07T15:28:54.928Z,44.49
2019-06-07T15:33:58.028Z,43.57
2019-06-07T15:39:01.422Z,43.33
2019-06-07T15:44:04.781Z,45.51
2019-06-07T15:49:07.944Z,44.11
2019-06-07T15:54:11.150Z,43.88
2019-06-07T15:59:14.262Z,44.33
2019-06-07T16:04:17.371Z,44.35
2019-06-07T16:09:20.575Z,47.23
2019-06-07T16:14:26.242Z,50.01
2019-06-07T16:19:29.230Z,48.08
2019-06-07T16:24:33.579Z,48.65
2019-06-07T16:29:36.843Z,46.78
2019-06-07T16:34:41.761Z,47.49
2019-06-07T16:39:44.759Z,46.62
2019-06-07T16:44:48.946Z,46.03
2019-06-07T16:49:52.176Z,47.39
2019-06-07T16:54:55.325Z,46.78
2019-06-07T17:00:06.737Z,49.02
2019-06-07T17:05:10.256Z,49.95
2019-06-07T17:10:16.182Z,49.55
2019-06-07T17:15:19.735Z,49.07
2019-06-07T17:20:23.327Z,50.05
2019-06-07T17:25:26.364Z,50.44
2019-06-07T17:30:29.586Z,51.90
2019-06-07T17:35:32.784Z,52.04
2019-06-07T17:40:35.989Z,52.80
2019-06-07T17:45:39.359Z,53.57
2019-06-07T17:50:43.702Z,54.57
2019-06-07T17:55:48.176Z,54.34
2019-06-07T18:00:53.065Z,54.70
2019-06-07T18:05:59.034Z,55.27
2019-06-07T18:11:02.222Z,55.28
2019-06-07T18:16:08.479Z,55.88
2019-06-07T18:21:11.715Z,56.60
2019-06-07T18:26:15.976Z,56.94
2019-06-07T18:31:19.105Z,57.21
2019-06-07T18:36:22.455Z,57.30
2019-06-07T18:41:25.931Z,57.84
2019-06-07T18:46:29.060Z,57.81
2019-06-07T18:51:32.275Z,58.15
2019-06-07T18:56:35.415Z,57.84
2019-06-07T19:01:38.820Z,58.63
2019-06-07T19:06:41.886Z,58.85
2019-06-07T19:11:44.955Z,59.11
2019-06-07T19:16:49.337Z,59.86
2019-06-07T19:21:53.892Z,59.64
2019-06-07T19:26:58.635Z,59.96
2019-06-07T19:32:01.997Z,62.23
2019-06-07T19:37:05.037Z,62.59
2019-06-07T19:42:08.220Z,63.35
2019-06-07T19:47:11.514Z,63.64
2019-06-07T19:52:15.129Z,64.14
2019-06-07T19:57:18.353Z,63.93
2019-06-07T20:02:21.551Z,63.86
2019-06-07T20:07:24.882Z,63.99
2019-06-07T20:12:30.271Z,65.18
2019-06-07T20:17:32.757Z,67.20
2019-06-07T20:22:36.079Z,69.71
2019-06-07T20:27:39.348Z,68.03
2019-06-07T20:32:44.342Z,68.80
2019-06-07T20:37:47.497Z,67.34
2019-06-07T20:42:57.413Z,66.73
2019-06-07T20:48:01.985Z,68.38
2019-06-07T20:53:07.039Z,67.65
2019-06-07T20:58:10.443Z,67.86
2019-06-07T21:03:15.645Z,68.00
2019-06-07T21:08:18.764Z,67.81
2019-06-07T21:13:22.035Z,67.37
2019-06-07T21:18:25.187Z,68.70
2019-06-07T21:23:28.508Z,67.50
2019-06-07T21:28:33.648Z,69.66
2019-06-07T21:33:38.186Z,72.39
2019-06-07T21:38:41.348Z,74.42
2019-06-07T21:43:44.446Z,75.84
2019-06-07T21:48:47.596Z,72.94
2019-06-07T21:53:53.881Z,73.00
2019-06-07T21:58:57.298Z,75.43
2019-06-07T22:04:03.478Z,75.99
2019-06-07T22:09:09.944Z,76.57
2019-06-07T22:14:14.522Z,75.07
2019-06-07T22:19:17.959Z,77.56
2019-06-07T22:24:21.084Z,78.02
2019-06-07T22:29:24.255Z,79.56
2019-06-07T22:34:27.498Z,80.76
2019-06-07T22:39:30.738Z,81.84
2019-06-07T22:44:33.822Z,81.18
2019-06-07T22:49:36.972Z,82.08
2019-06-07T22:54:40.205Z,83.34
2019-06-07T22:59:43.340Z,80.87
2019-06-07T23:04:46.600Z,85.10
2019-06-07T23:09:49.857Z,82.71
2019-06-07T23:14:52.990Z,81.42
2019-06-07T23:19:56.100Z,81.46
2019-06-07T23:25:02.865Z,85.71
2019-06-07T23:30:10.588Z,87.57
2019-06-07T23:35:14.817Z,87.24
2019-06-07T23:40:19.450Z,87.30
2019-06-07T23:45:22.791Z,86.29
2019-06-07T23:50:25.928Z,83.20
2019-06-07T23:55:30.439Z,82.89
